sensor_id;sensor_type;location;lat;lon;timestamp;pressure;altitude;pressure_sealevel;temperature;humidity
70103;BME280;57470;50.034;15.256;2024-01-30T00:01:12;101211.28;;;1.75;94.10
70103;BME280;57470;50.034;15.256;2024-01-30T00:03:38;101211.38;;;1.58;93.10
70103;BME280;57470;50.034;15.256;2024-01-30T00:06:03;101209.63;;;1.52;94.06
70103;BME280;57470;50.034;15.256;2024-01-30T00:08:29;101204.38;;;1.57;94.98
70103;BME280;57470;50.034;15.256;2024-01-30T00:10:54;101203.66;;;1.11;95.13
70103;BME280;57470;50.034;15.256;2024-01-30T00:13:19;101203.66;;;1.11;95.26
70103;BME280;57470;50.034;15.256;2024-01-30T00:15:45;101208.81;;;1.37;94.66
70103;BME280;57470;50.034;15.256;2024-01-30T00:18:11;101202.75;;;1.24;94.38
70103;BME280;57470;50.034;15.256;2024-01-30T00:20:36;101205.34;;;1.27;95.04
70103;BME280;57470;50.034;15.256;2024-01-30T00:23:01;101203.59;;;1.34;95.16
70103;BME280;57470;50.034;15.256;2024-01-30T00:25:27;101212.31;;;1.42;94.44
70103;BME280;57470;50.034;15.256;2024-01-30T00:27:52;101206.22;;;1.32;94.70
70103;BME280;57470;50.034;15.256;2024-01-30T00:30:18;101212.28;;;1.49;94.15
70103;BME280;57470;50.034;15.256;2024-01-30T00:32:43;101210.41;;;1.71;93.55
70103;BME280;57470;50.034;15.256;2024-01-30T00:35:09;101214.75;;;1.86;91.89
70103;BME280;57470;50.034;15.256;2024-01-30T00:37:35;101209.50;;;1.83;91.29
70103;BME280;57470;50.034;15.256;2024-01-30T00:40:01;101214.78;;;1.77;90.43
70103;BME280;57470;50.034;15.256;2024-01-30T00:42:26;101208.78;;;1.52;89.40
70103;BME280;57470;50.034;15.256;2024-01-30T00:44:51;101211.34;;;1.64;88.77
70103;BME280;57470;50.034;15.256;2024-01-30T00:47:17;101207.88;;;1.58;88.45
70103;BME280;57470;50.034;15.256;2024-01-30T00:49:42;101202.63;;;1.55;87.96
70103;BME280;57470;50.034;15.256;2024-01-30T00:52:08;101201.75;;;1.52;88.82
70103;BME280;57470;50.034;15.256;2024-01-30T00:54:33;101203.53;;;1.49;87.87
70103;BME280;57470;50.034;15.256;2024-01-30T00:56:58;101194.00;;;1.28;88.45
70103;BME280;57470;50.034;15.256;2024-01-30T00:59:24;101190.50;;;1.26;87.98
70103;BME280;57470;50.034;15.256;2024-01-30T01:01:50;101187.03;;;1.18;88.47
70103;BME280;57470;50.034;15.256;2024-01-30T01:04:15;101202.81;;;0.92;88.98
70103;BME280;57470;50.034;15.256;2024-01-30T01:06:42;101200.13;;;1.18;88.75
70103;BME280;57470;50.034;15.256;2024-01-30T01:09:10;101195.00;;;0.89;88.90
70103;BME280;57470;50.034;15.256;2024-01-30T01:11:35;101193.25;;;0.79;89.87
70103;BME280;57470;50.034;15.256;2024-01-30T01:14:01;101193.22;;;0.93;89.20
70103;BME280;57470;50.034;15.256;2024-01-30T01:16:26;101189.75;;;0.79;89.30
70103;BME280;57470;50.034;15.256;2024-01-30T01:18:52;101204.59;;;0.77;88.23
70103;BME280;57470;50.034;15.256;2024-01-30T01:21:17;101199.34;;;0.87;87.83
70103;BME280;57470;50.034;15.256;2024-01-30T01:23:43;101190.63;;;0.85;88.17
70103;BME280;57470;50.034;15.256;2024-01-30T01:26:08;101193.22;;;0.84;88.31
70103;BME280;57470;50.034;15.256;2024-01-30T01:28:35;101191.50;;;0.72;89.04
70103;BME280;57470;50.034;15.256;2024-01-30T01:31:00;101195.00;;;0.66;88.86
70103;BME280;57470;50.034;15.256;2024-01-30T01:33:33;101192.38;;;0.77;89.01
70103;BME280;57470;50.034;15.256;2024-01-30T01:35:59;101201.09;;;0.64;89.51
70103;BME280;57470;50.034;15.256;2024-01-30T01:38:25;101196.72;;;0.72;89.94
70103;BME280;57470;50.034;15.256;2024-01-30T01:40:50;101200.25;;;0.48;90.95
70103;BME280;57470;50.034;15.256;2024-01-30T01:43:16;101196.75;;;0.46;92.67
70103;BME280;57470;50.034;15.256;2024-01-30T01:45:42;101196.75;;;0.35;93.10
70103;BME280;57470;50.034;15.256;2024-01-30T01:48:07;101191.47;;;0.04;95.34
70103;BME280;57470;50.034;15.256;2024-01-30T01:50:34;101194.13;;;0.22;96.75
70103;BME280;57470;50.034;15.256;2024-01-30T01:53:01;101205.47;;;0.45;96.37
70103;BME280;57470;50.034;15.256;2024-01-30T01:55:29;101188.84;;;-0.07;96.91
70103;BME280;57470;50.034;15.256;2024-01-30T01:57:54;101197.59;;;0.21;97.76
70103;BME280;57470;50.034;15.256;2024-01-30T02:00:20;101194.97;;;0.12;98.38
70103;BME280;57470;50.034;15.256;2024-01-30T02:02:46;101188.88;;;0.07;98.54
70103;BME280;57470;50.034;15.256;2024-01-30T02:05:12;101194.13;;;0.16;98.68
70103;BME280;57470;50.034;15.256;2024-01-30T02:07:38;101195.88;;;0.24;98.27
70103;BME280;57470;50.034;15.256;2024-01-30T02:10:04;101184.47;;;-0.07;99.89
70103;BME280;57470;50.034;15.256;2024-01-30T02:12:30;101189.75;;;0.06;99.38
70103;BME280;57470;50.034;15.256;2024-01-30T02:14:55;101199.38;;;0.25;99.78
70103;BME280;57470;50.034;15.256;2024-01-30T02:17:21;101188.03;;;0.35;97.68
70103;BME280;57470;50.034;15.256;2024-01-30T02:19:48;101193.25;;;0.20;97.88
70103;BME280;57470;50.034;15.256;2024-01-30T02:22:14;101179.28;;;-0.04;99.15
70103;BME280;57470;50.034;15.256;2024-01-30T02:24:41;101180.13;;;-0.03;99.21
70103;BME280;57470;50.034;15.256;2024-01-30T02:27:07;101173.16;;;-0.12;100.00
70103;BME280;57470;50.034;15.256;2024-01-30T02:29:34;101170.53;;;-0.21;100.00
70103;BME280;57470;50.034;15.256;2024-01-30T02:32:04;101173.13;;;-0.21;100.00
70103;BME280;57470;50.034;15.256;2024-01-30T02:34:32;101165.25;;;-0.31;100.00
70103;BME280;57470;50.034;15.256;2024-01-30T02:36:58;101177.53;;;-0.05;100.00
70103;BME280;57470;50.034;15.256;2024-01-30T02:39:25;101177.53;;;-0.02;100.00
70103;BME280;57470;50.034;15.256;2024-01-30T02:41:52;101186.28;;;0.46;99.15
70103;BME280;57470;50.034;15.256;2024-01-30T02:44:18;101189.78;;;0.60;97.62
70103;BME280;57470;50.034;15.256;2024-01-30T02:46:45;101175.81;;;0.61;95.78
70103;BME280;57470;50.034;15.256;2024-01-30T02:49:12;101179.28;;;0.77;94.82
70103;BME280;57470;50.034;15.256;2024-01-30T02:51:39;101187.09;;;0.92;93.12
70103;BME280;57470;50.034;15.256;2024-01-30T02:54:06;101177.53;;;0.78;93.71
70103;BME280;57470;50.034;15.256;2024-01-30T02:56:34;101185.34;;;0.93;93.44
70103;BME280;57470;50.034;15.256;2024-01-30T02:59:01;101180.16;;;0.78;92.60
70103;BME280;57470;50.034;15.256;2024-01-30T03:01:27;101178.41;;;0.29;94.46
70103;BME280;57470;50.034;15.256;2024-01-30T03:03:57;101169.69;;;0.46;94.80
70103;BME280;57470;50.034;15.256;2024-01-30T03:06:24;101171.44;;;0.41;95.29
70103;BME280;57470;50.034;15.256;2024-01-30T03:08:52;101170.59;;;0.35;95.14
70103;BME280;57470;50.034;15.256;2024-01-30T03:11:19;101174.94;;;0.50;95.90
70103;BME280;57470;50.034;15.256;2024-01-30T03:13:46;101181.91;;;0.63;94.15
70103;BME280;57470;50.034;15.256;2024-01-30T03:16:13;101168.81;;;0.65;92.35
70103;BME280;57470;50.034;15.256;2024-01-30T03:18:38;101171.44;;;0.77;92.29
70103;BME280;57470;50.034;15.256;2024-01-30T03:21:04;101173.19;;;0.60;91.80
70103;BME280;57470;50.034;15.256;2024-01-30T03:23:29;101170.56;;;0.57;91.41
70103;BME280;57470;50.034;15.256;2024-01-30T03:25:55;101167.94;;;0.66;91.06
70103;BME280;57470;50.034;15.256;2024-01-30T03:28:20;101176.66;;;0.63;90.67
70103;BME280;57470;50.034;15.256;2024-01-30T03:30:45;101175.81;;;0.58;90.38
70103;BME280;57470;50.034;15.256;2024-01-30T03:33:11;101182.78;;;0.59;90.01
70103;BME280;57470;50.034;15.256;2024-01-30T03:35:36;101180.19;;;0.71;90.68
70103;BME280;57470;50.034;15.256;2024-01-30T03:38:01;101167.91;;;0.00;92.50
70103;BME280;57470;50.034;15.256;2024-01-30T03:40:27;101168.78;;;-0.07;93.47
70103;BME280;57470;50.034;15.256;2024-01-30T03:42:52;101168.84;;;0.24;92.44
70103;BME280;57470;50.034;15.256;2024-01-30T03:45:18;101167.97;;;0.25;91.48
70103;BME280;57470;50.034;15.256;2024-01-30T03:47:44;101172.31;;;0.30;90.83
70103;BME280;57470;50.034;15.256;2024-01-30T03:50:10;101172.31;;;0.29;90.64
70103;BME280;57470;50.034;15.256;2024-01-30T03:52:35;101172.31;;;0.23;91.02
70103;BME280;57470;50.034;15.256;2024-01-30T03:55:01;101167.97;;;0.25;90.73
70103;BME280;57470;50.034;15.256;2024-01-30T03:57:26;101165.34;;;0.29;90.55
70103;BME280;57470;50.034;15.256;2024-01-30T03:59:51;101168.81;;;0.39;91.19
70103;BME280;57470;50.034;15.256;2024-01-30T04:02:17;101167.09;;;0.26;91.64
70103;BME280;57470;50.034;15.256;2024-01-30T04:04:43;101161.00;;;0.44;91.56
70103;BME280;57470;50.034;15.256;2024-01-30T04:07:08;101167.09;;;0.52;92.92
70103;BME280;57470;50.034;15.256;2024-01-30T04:09:33;101160.09;;;0.49;92.84
70103;BME280;57470;50.034;15.256;2024-01-30T04:11:59;101160.13;;;0.42;91.79
70103;BME280;57470;50.034;15.256;2024-01-30T04:14:24;101151.38;;;0.23;92.03
70103;BME280;57470;50.034;15.256;2024-01-30T04:16:50;101142.63;;;-0.19;94.80
70103;BME280;57470;50.034;15.256;2024-01-30T04:19:15;101154.88;;;0.08;94.32
70103;BME280;57470;50.034;15.256;2024-01-30T04:21:40;101159.22;;;0.21;93.22
70103;BME280;57470;50.034;15.256;2024-01-30T04:24:06;101158.38;;;0.18;93.13
70103;BME280;57470;50.034;15.256;2024-01-30T04:26:31;101147.88;;;0.27;92.76
70103;BME280;57470;50.034;15.256;2024-01-30T04:28:56;101147.91;;;0.39;92.46
70103;BME280;57470;50.034;15.256;2024-01-30T04:31:22;101153.13;;;0.39;93.05
70103;BME280;57470;50.034;15.256;2024-01-30T04:33:47;101150.53;;;0.15;92.46
70103;BME280;57470;50.034;15.256;2024-01-30T04:36:13;101147.88;;;0.28;92.87
70103;BME280;57470;50.034;15.256;2024-01-30T04:38:38;101147.03;;;0.26;92.44
70103;BME280;57470;50.034;15.256;2024-01-30T04:41:04;101161.00;;;0.34;92.31
70103;BME280;57470;50.034;15.256;2024-01-30T04:43:30;101153.13;;;0.42;91.68
70103;BME280;57470;50.034;15.256;2024-01-30T04:45:55;101136.56;;;-0.10;92.17
70103;BME280;57470;50.034;15.256;2024-01-30T04:48:21;101138.28;;;0.02;93.13
70103;BME280;57470;50.034;15.256;2024-01-30T04:50:46;101141.78;;;0.14;93.51
70103;BME280;57470;50.034;15.256;2024-01-30T04:53:12;101142.66;;;0.33;93.28
70103;BME280;57470;50.034;15.256;2024-01-30T04:55:37;101137.44;;;0.09;93.80
70103;BME280;57470;50.034;15.256;2024-01-30T04:58:03;101146.13;;;0.11;93.22
70103;BME280;57470;50.034;15.256;2024-01-30T05:00:28;101144.41;;;0.31;92.55
70103;BME280;57470;50.034;15.256;2024-01-30T05:02:55;101137.44;;;-0.01;93.64
70103;BME280;57470;50.034;15.256;2024-01-30T05:05:21;101134.78;;;-0.08;95.38
70103;BME280;57470;50.034;15.256;2024-01-30T05:07:47;101141.75;;;-0.16;95.93
70103;BME280;57470;50.034;15.256;2024-01-30T05:10:13;101149.63;;;-0.04;97.39
70103;BME280;57470;50.034;15.256;2024-01-30T05:12:39;101144.41;;;0.17;96.01
70103;BME280;57470;50.034;15.256;2024-01-30T05:15:04;101139.16;;;-0.07;95.97
70103;BME280;57470;50.034;15.256;2024-01-30T05:17:30;101136.50;;;-0.38;96.38
70103;BME280;57470;50.034;15.256;2024-01-30T05:19:55;101145.25;;;0.01;96.14
70103;BME280;57470;50.034;15.256;2024-01-30T05:22:21;101153.13;;;0.27;94.11
70103;BME280;57470;50.034;15.256;2024-01-30T05:24:46;101149.63;;;0.13;92.66
70103;BME280;57470;50.034;15.256;2024-01-30T05:27:12;101158.38;;;0.18;93.08
70103;BME280;57470;50.034;15.256;2024-01-30T05:29:39;101158.38;;;0.15;92.38
70103;BME280;57470;50.034;15.256;2024-01-30T05:32:04;101156.63;;;0.35;92.70
70103;BME280;57470;50.034;15.256;2024-01-30T05:34:31;101162.75;;;0.34;92.37
70103;BME280;57470;50.034;15.256;2024-01-30T05:36:56;101161.84;;;0.11;92.53
70103;BME280;57470;50.034;15.256;2024-01-30T05:39:21;101156.59;;;0.20;92.18
70103;BME280;57470;50.034;15.256;2024-01-30T05:41:47;101159.22;;;0.20;91.20
70103;BME280;57470;50.034;15.256;2024-01-30T05:44:12;101153.06;;;-0.23;92.20
70103;BME280;57470;50.034;15.256;2024-01-30T05:46:38;101160.06;;;-0.21;93.16
70103;BME280;57470;50.034;15.256;2024-01-30T05:49:03;101160.09;;;0.02;92.11
70103;BME280;57470;50.034;15.256;2024-01-30T05:51:28;101163.56;;;-0.07;92.47
70103;BME280;57470;50.034;15.256;2024-01-30T05:53:54;101160.09;;;-0.10;91.81
70103;BME280;57470;50.034;15.256;2024-01-30T05:56:20;101147.78;;;-0.42;92.79
70103;BME280;57470;50.034;15.256;2024-01-30T05:58:45;101155.72;;;-0.10;92.22
70103;BME280;57470;50.034;15.256;2024-01-30T06:01:10;101164.44;;;0.09;91.69
70103;BME280;57470;50.034;15.256;2024-01-30T06:03:36;101165.31;;;-0.06;91.11
70103;BME280;57470;50.034;15.256;2024-01-30T06:06:02;101161.78;;;-0.23;92.12
70103;BME280;57470;50.034;15.256;2024-01-30T06:08:27;101158.28;;;-0.37;94.28
70103;BME280;57470;50.034;15.256;2024-01-30T06:10:53;101165.19;;;-0.50;94.66
70103;BME280;57470;50.034;15.256;2024-01-30T06:13:19;101163.44;;;-0.51;93.58
70103;BME280;57470;50.034;15.256;2024-01-30T06:15:45;101163.53;;;-0.29;92.50
70103;BME280;57470;50.034;15.256;2024-01-30T06:18:10;101172.28;;;-0.14;92.77
70103;BME280;57470;50.034;15.256;2024-01-30T06:20:36;101173.16;;;-0.06;92.96
70103;BME280;57470;50.034;15.256;2024-01-30T06:23:01;101174.03;;;-0.04;92.43
70103;BME280;57470;50.034;15.256;2024-01-30T06:25:26;101177.53;;;0.12;92.25
70103;BME280;57470;50.034;15.256;2024-01-30T06:27:52;101170.50;;;-0.22;92.68
70103;BME280;57470;50.034;15.256;2024-01-30T06:30:18;101161.75;;;-0.32;93.46
70103;BME280;57470;50.034;15.256;2024-01-30T06:32:43;101172.25;;;-0.24;93.87
70103;BME280;57470;50.034;15.256;2024-01-30T06:35:09;101169.56;;;-0.43;94.00
70103;BME280;57470;50.034;15.256;2024-01-30T06:37:36;101174.84;;;-0.26;93.46
70103;BME280;57470;50.034;15.256;2024-01-30T06:40:01;101175.72;;;-0.24;93.33
70103;BME280;57470;50.034;15.256;2024-01-30T06:42:26;101169.63;;;-0.23;93.86
70103;BME280;57470;50.034;15.256;2024-01-30T06:44:52;101163.44;;;-0.58;94.62
70103;BME280;57470;50.034;15.256;2024-01-30T06:47:17;101167.84;;;-0.39;94.94
70103;BME280;57470;50.034;15.256;2024-01-30T06:49:43;101174.00;;;-0.19;94.67
70103;BME280;57470;50.034;15.256;2024-01-30T06:52:09;101169.56;;;-0.41;95.22
70103;BME280;57470;50.034;15.256;2024-01-30T06:54:34;101178.34;;;-0.18;94.90
70103;BME280;57470;50.034;15.256;2024-01-30T06:57:00;101170.50;;;-0.16;95.34
70103;BME280;57470;50.034;15.256;2024-01-30T06:59:25;101167.91;;;-0.19;96.22
70103;BME280;57470;50.034;15.256;2024-01-30T07:01:51;101174.94;;;0.06;94.54
70103;BME280;57470;50.034;15.256;2024-01-30T07:04:16;101169.69;;;0.11;95.12
70103;BME280;57470;50.034;15.256;2024-01-30T07:06:43;101179.28;;;0.12;95.21
70103;BME280;57470;50.034;15.256;2024-01-30T07:09:08;101178.38;;;-0.12;94.93
70103;BME280;57470;50.034;15.256;2024-01-30T07:11:34;101174.81;;;-0.47;96.66
70103;BME280;57470;50.034;15.256;2024-01-30T07:13:59;101178.34;;;-0.25;97.01
70103;BME280;57470;50.034;15.256;2024-01-30T07:16:25;101168.75;;;-0.25;97.09
70103;BME280;57470;50.034;15.256;2024-01-30T07:18:51;101176.59;;;-0.17;96.68
70103;BME280;57470;50.034;15.256;2024-01-30T07:21:16;101183.59;;;-0.07;97.30
70103;BME280;57470;50.034;15.256;2024-01-30T07:23:42;101176.59;;;-0.22;97.37
70103;BME280;57470;50.034;15.256;2024-01-30T07:26:08;101175.75;;;-0.27;97.13
70103;BME280;57470;50.034;15.256;2024-01-30T07:28:34;101189.72;;;-0.10;98.15
70103;BME280;57470;50.034;15.256;2024-01-30T07:31:01;101184.50;;;-0.04;98.43
70103;BME280;57470;50.034;15.256;2024-01-30T07:33:26;101187.97;;;-0.05;98.22
70103;BME280;57470;50.034;15.256;2024-01-30T07:35:52;101187.13;;;-0.04;98.20
70103;BME280;57470;50.034;15.256;2024-01-30T07:38:18;101186.25;;;0.13;99.05
70103;BME280;57470;50.034;15.256;2024-01-30T07:40:44;101182.78;;;0.38;99.25
70103;BME280;57470;50.034;15.256;2024-01-30T07:43:09;101191.50;;;0.40;98.50
70103;BME280;57470;50.034;15.256;2024-01-30T07:45:35;101188.59;;;1.69;96.52
70103;BME280;57470;50.034;15.256;2024-01-30T07:48:00;101189.91;;;3.30;90.10
70103;BME280;57470;50.034;15.256;2024-01-30T07:50:26;101182.78;;;4.03;84.88
70103;BME280;57470;50.034;15.256;2024-01-30T07:52:52;101181.72;;;4.71;82.58
70103;BME280;57470;50.034;15.256;2024-01-30T07:56:00;101173.69;;;4.24;82.28
70103;BME280;57470;50.034;15.256;2024-01-30T07:58:26;101172.72;;;2.97;86.54
70103;BME280;57470;50.034;15.256;2024-01-30T08:00:53;101174.22;;;2.26;88.92
70103;BME280;57470;50.034;15.256;2024-01-30T08:03:18;101180.13;;;2.53;89.37
70103;BME280;57470;50.034;15.256;2024-01-30T08:05:44;101179.81;;;2.88;89.16
70103;BME280;57470;50.034;15.256;2024-01-30T08:08:09;101189.72;;;3.43;87.17
70103;BME280;57470;50.034;15.256;2024-01-30T08:10:36;101183.38;;;2.85;87.50
70103;BME280;57470;50.034;15.256;2024-01-30T08:13:01;101194.88;;;4.18;84.30
70103;BME280;57470;50.034;15.256;2024-01-30T08:15:27;101188.34;;;3.85;85.37
70103;BME280;57470;50.034;15.256;2024-01-30T08:17:52;101192.09;;;4.27;84.51
70103;BME280;57470;50.034;15.256;2024-01-30T08:20:23;101177.72;;;3.22;86.52
70103;BME280;57470;50.034;15.256;2024-01-30T08:22:48;101190.91;;;4.98;82.55
70103;BME280;57470;50.034;15.256;2024-01-30T08:25:14;101177.19;;;3.64;83.46
70103;BME280;57470;50.034;15.256;2024-01-30T08:27:39;101180.69;;;4.80;81.23
70103;BME280;57470;50.034;15.256;2024-01-30T08:30:08;101187.88;;;4.17;84.06
70103;BME280;57470;50.034;15.256;2024-01-30T08:32:33;101190.69;;;4.60;84.23
70103;BME280;57470;50.034;15.256;2024-01-30T08:34:59;101181.41;;;3.76;84.90
70103;BME280;57470;50.034;15.256;2024-01-30T08:37:25;101188.34;;;3.85;85.25
70103;BME280;57470;50.034;15.256;2024-01-30T08:39:50;101181.69;;;3.56;87.60
70103;BME280;57470;50.034;15.256;2024-01-30T08:42:15;101184.19;;;2.87;89.46
70103;BME280;57470;50.034;15.256;2024-01-30T08:44:43;101182.66;;;2.67;90.81
70103;BME280;57470;50.034;15.256;2024-01-30T08:47:09;101185.22;;;2.74;91.10
70103;BME280;57470;50.034;15.256;2024-01-30T08:49:34;101180.84;;;3.54;89.91
70103;BME280;57470;50.034;15.256;2024-01-30T08:51:59;101199.75;;;4.42;87.95
70103;BME280;57470;50.034;15.256;2024-01-30T08:54:25;101179.34;;;3.99;86.34
70103;BME280;57470;50.034;15.256;2024-01-30T08:56:50;101186.69;;;4.36;85.99
70103;BME280;57470;50.034;15.256;2024-01-30T08:59:18;101186.13;;;4.15;86.04
70103;BME280;57470;50.034;15.256;2024-01-30T09:01:44;101184.47;;;4.10;86.15
70103;BME280;57470;50.034;15.256;2024-01-30T09:04:09;101191.81;;;4.96;85.81
70103;BME280;57470;50.034;15.256;2024-01-30T09:06:34;101192.69;;;4.96;85.09
70103;BME280;57470;50.034;15.256;2024-01-30T09:09:00;101183.97;;;4.40;85.50
70103;BME280;57470;50.034;15.256;2024-01-30T09:11:26;101183.09;;;4.40;85.79
70103;BME280;57470;50.034;15.256;2024-01-30T09:13:51;101187.72;;;4.78;85.39
70103;BME280;57470;50.034;15.256;2024-01-30T09:16:17;101178.38;;;4.05;86.93
70103;BME280;57470;50.034;15.256;2024-01-30T09:18:42;101184.53;;;4.04;87.38
70103;BME280;57470;50.034;15.256;2024-01-30T09:21:07;101183.78;;;3.94;87.67
70103;BME280;57470;50.034;15.256;2024-01-30T09:23:33;101188.75;;;3.51;88.35
70103;BME280;57470;50.034;15.256;2024-01-30T09:25:59;101180.63;;;3.69;88.45
70103;BME280;57470;50.034;15.256;2024-01-30T09:28:24;101186.84;;;4.25;88.06
70103;BME280;57470;50.034;15.256;2024-01-30T09:30:50;101187.41;;;3.86;88.13
70103;BME280;57470;50.034;15.256;2024-01-30T09:33:15;101183.75;;;3.96;88.36
70103;BME280;57470;50.034;15.256;2024-01-30T09:35:40;101185.66;;;3.86;88.25
70103;BME280;57470;50.034;15.256;2024-01-30T09:38:06;101189.78;;;4.05;88.68
70103;BME280;57470;50.034;15.256;2024-01-30T09:40:31;101186.22;;;4.08;88.19
70103;BME280;57470;50.034;15.256;2024-01-30T09:42:58;101192.84;;;4.35;87.93
70103;BME280;57470;50.034;15.256;2024-01-30T09:45:25;101178.69;;;3.84;88.32
70103;BME280;57470;50.034;15.256;2024-01-30T09:47:51;101185.34;;;4.09;87.98
70103;BME280;57470;50.034;15.256;2024-01-30T09:50:18;101181.31;;;3.84;87.82
70103;BME280;57470;50.034;15.256;2024-01-30T09:52:44;101178.00;;;3.68;88.79
70103;BME280;57470;50.034;15.256;2024-01-30T09:55:10;101188.75;;;4.15;87.81
70103;BME280;57470;50.034;15.256;2024-01-30T09:57:36;101187.00;;;4.16;87.63
70103;BME280;57470;50.034;15.256;2024-01-30T10:00:02;101178.84;;;3.73;87.11
70103;BME280;57470;50.034;15.256;2024-01-30T10:02:31;101191.38;;;4.17;88.15
70103;BME280;57470;50.034;15.256;2024-01-30T10:04:56;101185.44;;;4.57;87.31
70103;BME280;57470;50.034;15.256;2024-01-30T10:07:22;101177.06;;;3.73;87.15
70103;BME280;57470;50.034;15.256;2024-01-30T10:09:48;101173.16;;;4.02;86.44
70103;BME280;57470;50.034;15.256;2024-01-30T10:12:14;101183.44;;;4.19;87.44
70103;BME280;57470;50.034;15.256;2024-01-30T10:14:40;101170.06;;;3.72;87.17
70103;BME280;57470;50.034;15.256;2024-01-30T10:17:08;101167.44;;;3.71;86.88
70103;BME280;57470;50.034;15.256;2024-01-30T10:19:34;101183.75;;;3.96;86.42
70103;BME280;57470;50.034;15.256;2024-01-30T10:22:00;101170.53;;;4.02;86.37
70103;BME280;57470;50.034;15.256;2024-01-30T10:24:26;101172.50;;;4.44;87.03
70103;BME280;57470;50.034;15.256;2024-01-30T10:26:55;101180.44;;;4.43;85.11
70103;BME280;57470;50.034;15.256;2024-01-30T10:29:21;101164.66;;;3.85;85.79
70103;BME280;57470;50.034;15.256;2024-01-30T10:32:00;101166.16;;;4.01;85.43
70103;BME280;57470;50.034;15.256;2024-01-30T10:34:26;101162.56;;;4.06;85.57
70103;BME280;57470;50.034;15.256;2024-01-30T10:39:24;101155.28;;;3.64;86.09
70103;BME280;57470;50.034;15.256;2024-01-30T10:41:55;101162.69;;;3.99;86.62
70103;BME280;57470;50.034;15.256;2024-01-30T10:44:21;101153.38;;;3.75;85.80
70103;BME280;57470;50.034;15.256;2024-01-30T10:46:51;101154.31;;;3.69;86.46
70103;BME280;57470;50.034;15.256;2024-01-30T10:49:18;101147.16;;;3.79;87.00
70103;BME280;57470;50.034;15.256;2024-01-30T10:51:45;101143.72;;;3.75;87.01
70103;BME280;57470;50.034;15.256;2024-01-30T10:54:12;101145.84;;;4.09;87.33
70103;BME280;57470;50.034;15.256;2024-01-30T10:56:38;101139.25;;;3.81;86.59
70103;BME280;57470;50.034;15.256;2024-01-30T10:59:05;101139.88;;;3.98;86.07
70103;BME280;57470;50.034;15.256;2024-01-30T11:01:30;101131.22;;;3.90;85.83
70103;BME280;57470;50.034;15.256;2024-01-30T11:03:56;101127.25;;;3.61;86.25
70103;BME280;57470;50.034;15.256;2024-01-30T11:06:22;101137.84;;;4.15;86.75
70103;BME280;57470;50.034;15.256;2024-01-30T11:11:28;101127.41;;;4.09;86.17
70103;BME280;57470;50.034;15.256;2024-01-30T11:13:53;101130.38;;;3.86;85.70
70103;BME280;57470;50.034;15.256;2024-01-30T11:16:20;101125.84;;;3.96;85.58
70103;BME280;57470;50.034;15.256;2024-01-30T11:18:50;101124.03;;;4.01;85.93
70103;BME280;57470;50.034;15.256;2024-01-30T11:21:16;101123.66;;;4.25;85.25
70103;BME280;57470;50.034;15.256;2024-01-30T11:23:42;101123.78;;;4.16;85.69
70103;BME280;57470;50.034;15.256;2024-01-30T11:26:10;101127.03;;;4.33;84.84
70103;BME280;57470;50.034;15.256;2024-01-30T11:28:37;101116.13;;;4.55;84.25
70103;BME280;57470;50.034;15.256;2024-01-30T11:31:07;101117.19;;;4.43;83.34
70103;BME280;57470;50.034;15.256;2024-01-30T11:33:33;101117.53;;;4.22;84.05
70103;BME280;57470;50.034;15.256;2024-01-30T11:36:01;101112.03;;;4.37;83.60
70103;BME280;57470;50.034;15.256;2024-01-30T11:38:28;101111.28;;;4.78;83.12
70103;BME280;57470;50.034;15.256;2024-01-30T11:40:56;101103.69;;;4.63;83.23
70103;BME280;57470;50.034;15.256;2024-01-30T11:43:23;101104.19;;;4.34;83.92
70103;BME280;57470;50.034;15.256;2024-01-30T11:45:49;101094.75;;;4.70;84.38
70103;BME280;57470;50.034;15.256;2024-01-30T11:48:14;101096.50;;;4.71;83.39
70103;BME280;57470;50.034;15.256;2024-01-30T11:50:40;101092.94;;;5.18;82.27
70103;BME280;57470;50.034;15.256;2024-01-30T11:53:06;101086.28;;;5.00;82.47
70103;BME280;57470;50.034;15.256;2024-01-30T11:55:32;101093.47;;;5.34;81.82
70103;BME280;57470;50.034;15.256;2024-01-30T11:57:58;101085.78;;;5.23;80.40
70103;BME280;57470;50.034;15.256;2024-01-30T12:00:24;101083.16;;;5.23;81.59
70103;BME280;57470;50.034;15.256;2024-01-30T12:02:54;101077.34;;;5.07;81.93
70103;BME280;57470;50.034;15.256;2024-01-30T12:05:24;101072.56;;;5.24;82.06
70103;BME280;57470;50.034;15.256;2024-01-30T12:07:50;101069.00;;;5.27;81.67
70103;BME280;57470;50.034;15.256;2024-01-30T12:10:15;101066.13;;;4.96;82.78
70103;BME280;57470;50.034;15.256;2024-01-30T12:12:44;101063.47;;;4.98;82.58
70103;BME280;57470;50.034;15.256;2024-01-30T12:15:10;101067.53;;;5.12;81.98
70103;BME280;57470;50.034;15.256;2024-01-30T12:17:36;101065.19;;;4.99;82.01
70103;BME280;57470;50.034;15.256;2024-01-30T12:20:09;101053.09;;;4.88;82.11
70103;BME280;57470;50.034;15.256;2024-01-30T12:22:38;101051.00;;;5.04;81.97
70103;BME280;57470;50.034;15.256;2024-01-30T12:25:07;101054.63;;;5.00;82.39
70103;BME280;57470;50.034;15.256;2024-01-30T12:27:33;101048.25;;;4.66;81.91
70103;BME280;57470;50.034;15.256;2024-01-30T12:29:59;101038.56;;;4.68;81.88
70103;BME280;57470;50.034;15.256;2024-01-30T12:32:24;101045.06;;;4.95;82.46
70103;BME280;57470;50.034;15.256;2024-01-30T12:34:49;101035.50;;;4.90;82.30
70103;BME280;57470;50.034;15.256;2024-01-30T12:37:15;101037.34;;;4.85;81.30
70103;BME280;57470;50.034;15.256;2024-01-30T12:39:45;101028.06;;;5.09;81.37
70103;BME280;57470;50.034;15.256;2024-01-30T12:42:10;101028.31;;;4.97;81.21
70103;BME280;57470;50.034;15.256;2024-01-30T12:44:36;101028.06;;;5.09;81.36
70103;BME280;57470;50.034;15.256;2024-01-30T12:47:05;101023.19;;;4.91;81.49